Main page
METAR-TAF:

METAR-TAF

Airports :

Martha's Vineyard Airport

Vineyard Haven, Massachusetts, United States

latitude: 41-23-32N, longitude: 070-37-00W, elevation: 66 ft

Current weather observation

The report was made 37 minutes ago, at 17:53 UTC
Wind 24 mph from the West/Southwest with gusts up to 36 mph
Temperature 46°F
Humidity 61%
Pressure 29.34 in. Hg
Visibility: 10 miles
Few clouds at a height of 2600 ft

METAR: KMVY 271753Z 24021G31KT 10SM FEW026 08/01 A2934 RMK AO2 PK WND 23038/1731 SLP935 60021 T00780011 10100 20067 50005

Time: 13:30 (18:30 UTC)


TAF: missing

Weather observations and forecasts of more than 4000 airports (METAR and TAF reports).

The available stations are represented by yellow and red dots on the map.

Hover mouse over dot to see the name of the station.

Then click to see weather observations and forecasts.

To change the map : click on the green buttons with a black cross to zoom in, on the green button with a dash to zoom out, or on the green arrows for adjacent maps.


METAR-TAF: